createdAt,value
2016-08-07T00:00:38.523Z,21.56
2016-08-07T00:01:38.494Z,21.55
2016-08-07T00:02:38.476Z,21.51
2016-08-07T00:03:38.477Z,21.52
2016-08-07T00:04:38.440Z,21.55
2016-08-07T00:05:38.429Z,21.56
2016-08-07T00:06:38.421Z,21.55
2016-08-07T00:07:38.410Z,21.55
2016-08-07T00:08:38.385Z,21.53
2016-08-07T00:09:37.662Z,21.43
2016-08-07T00:10:38.350Z,21.53
2016-08-07T00:11:38.333Z,21.37
2016-08-07T00:12:38.313Z,21.49
2016-08-07T00:13:38.297Z,21.42
2016-08-07T00:14:38.281Z,21.4
2016-08-07T00:15:37.554Z,21.37
2016-08-07T00:16:38.254Z,21.42
2016-08-07T00:17:38.236Z,21.4
2016-08-07T00:18:38.220Z,21.43
2016-08-07T00:19:38.200Z,21.37
2016-08-07T00:20:38.190Z,21.37
2016-08-07T00:21:38.165Z,21.33
2016-08-07T00:22:38.158Z,21.42
2016-08-07T00:23:38.135Z,21.36
2016-08-07T00:24:38.131Z,21.42
2016-08-07T00:25:38.107Z,21.37
2016-08-07T00:26:38.110Z,21.34
2016-08-07T00:27:38.077Z,21.28
2016-08-07T00:28:38.064Z,21.27
2016-08-07T00:29:38.047Z,21.24
2016-08-07T00:30:38.032Z,21.22
2016-08-07T00:31:38.014Z,21.22
2016-08-07T00:32:37.991Z,21.27
2016-08-07T00:33:37.979Z,21.22
2016-08-07T00:34:37.960Z,21.15
2016-08-07T00:35:37.269Z,21.21
2016-08-07T00:36:37.941Z,21.19
2016-08-07T00:37:37.927Z,21.22
2016-08-07T00:38:37.898Z,21.19
2016-08-07T00:39:37.901Z,21.24
2016-08-07T00:40:37.867Z,21.13
2016-08-07T00:41:37.853Z,21.13
2016-08-07T00:42:37.832Z,21.18
2016-08-07T00:43:37.825Z,21.13
2016-08-07T00:44:37.094Z,21.15
2016-08-07T00:45:37.798Z,21.24
2016-08-07T00:46:37.768Z,21.28
2016-08-07T00:47:37.773Z,21.36
2016-08-07T00:48:37.738Z,21.48
2016-08-07T00:49:37.744Z,21.55
2016-08-07T00:50:37.707Z,21.66
2016-08-07T00:51:37.707Z,21.67
2016-08-07T00:52:37.674Z,21.7
2016-08-07T00:53:37.677Z,21.82
2016-08-07T00:54:37.650Z,21.81
2016-08-07T00:55:37.634Z,21.74
2016-08-07T00:56:37.609Z,21.83
2016-08-07T00:57:37.604Z,21.89
2016-08-07T00:58:37.572Z,21.85
2016-08-07T00:59:37.560Z,21.93
2016-08-07T01:00:37.656Z,21.83
2016-08-07T01:01:37.533Z,21.9
2016-08-07T01:02:37.519Z,21.89
2016-08-07T01:03:36.789Z,21.93
2016-08-07T01:04:37.480Z,21.94
2016-08-07T01:05:37.475Z,21.94
2016-08-07T01:06:37.489Z,21.85
2016-08-07T01:07:37.437Z,21.91
2016-08-07T01:08:37.433Z,21.94
2016-08-07T01:09:37.405Z,21.93
2016-08-07T01:10:37.387Z,21.94
2016-08-07T01:11:37.384Z,21.98
2016-08-07T01:12:37.362Z,21.94
2016-08-07T01:13:37.372Z,21.99
2016-08-07T01:14:37.325Z,21.93
2016-08-07T01:15:37.306Z,21.94
2016-08-07T01:16:35.881Z,21.91
2016-08-07T01:17:37.285Z,21.94
2016-08-07T01:18:37.264Z,21.99
2016-08-07T01:19:37.235Z,22.01
2016-08-07T01:20:37.226Z,21.99
2016-08-07T01:21:37.224Z,22.02
2016-08-07T01:22:37.195Z,22.01
2016-08-07T01:23:37.176Z,22.04
2016-08-07T01:24:37.160Z,22.02
2016-08-07T01:25:37.149Z,22.05
2016-08-07T01:26:37.131Z,22.01
2016-08-07T01:27:36.402Z,21.96
2016-08-07T01:28:36.389Z,22.06
2016-08-07T01:29:37.080Z,22.04
2016-08-07T01:30:37.070Z,21.98
2016-08-07T01:31:37.056Z,22.04
2016-08-07T01:32:37.034Z,22.01
2016-08-07T01:33:37.022Z,22.02
2016-08-07T01:34:37.008Z,22.04
2016-08-07T01:35:36.997Z,22.06
2016-08-07T01:36:37.088Z,22.02
2016-08-07T01:37:36.953Z,22.04
2016-08-07T01:38:36.940Z,21.99
2016-08-07T01:39:36.227Z,22.08
2016-08-07T01:40:36.199Z,21.99
2016-08-07T01:41:36.896Z,22.04
2016-08-07T01:42:36.881Z,22.02
2016-08-07T01:43:36.867Z,22.06
2016-08-07T01:44:36.847Z,22.04
2016-08-07T01:45:36.842Z,21.99
2016-08-07T01:46:36.818Z,22.04
2016-08-07T01:47:36.097Z,22.02
2016-08-07T01:48:36.783Z,21.96
2016-08-07T01:49:36.773Z,22.11
2016-08-07T01:50:36.751Z,21.99
2016-08-07T01:51:36.750Z,22.11
2016-08-07T01:52:36.727Z,22.05
2016-08-07T01:53:36.703Z,22.02
2016-08-07T01:54:36.689Z,22.04
2016-08-07T01:55:36.678Z,22.08
2016-08-07T01:56:36.657Z,22.06
2016-08-07T01:57:37.612Z,22.05
2016-08-07T01:58:36.625Z,22.01
2016-08-07T01:59:36.606Z,22.09
2016-08-07T02:00:36.601Z,22.05
2016-08-07T02:01:36.578Z,22.11
2016-08-07T02:02:36.550Z,22.12
2016-08-07T02:03:36.555Z,22.04
2016-08-07T02:04:36.526Z,22.12
2016-08-07T02:05:36.505Z,22.11
2016-08-07T02:06:36.508Z,22.01
2016-08-07T02:07:36.486Z,22.04
2016-08-07T02:08:35.043Z,21.99
2016-08-07T02:09:36.461Z,22.06
2016-08-07T02:10:36.098Z,21.81
2016-08-07T02:11:36.425Z,21.55
2016-08-07T02:12:36.407Z,21.36
2016-08-07T02:13:36.385Z,21.26
2016-08-07T02:14:36.368Z,21.06
2016-08-07T02:15:36.365Z,21.03
2016-08-07T02:16:36.352Z,20.94
2016-08-07T02:17:36.324Z,20.93
2016-08-07T02:18:36.311Z,20.98
2016-08-07T02:19:36.284Z,20.87
2016-08-07T02:20:36.274Z,20.93
2016-08-07T02:21:36.277Z,20.97
2016-08-07T02:22:36.245Z,21.03
2016-08-07T02:23:36.273Z,20.97
2016-08-07T02:24:36.216Z,21
2016-08-07T02:25:36.196Z,20.97
2016-08-07T02:26:35.467Z,20.96
2016-08-07T02:27:36.155Z,20.94
2016-08-07T02:28:36.150Z,20.9
2016-08-07T02:29:36.130Z,20.91
2016-08-07T02:30:36.117Z,20.94
2016-08-07T02:31:35.386Z,20.97
2016-08-07T02:32:36.083Z,20.93
2016-08-07T02:33:36.065Z,20.96
2016-08-07T02:34:35.351Z,20.96
2016-08-07T02:35:36.521Z,20.87
2016-08-07T02:36:36.016Z,20.91
2016-08-07T02:37:36.000Z,20.88
2016-08-07T02:38:35.986Z,20.88
2016-08-07T02:39:35.963Z,20.97
2016-08-07T02:40:35.948Z,20.94
2016-08-07T02:41:35.942Z,20.94
2016-08-07T02:42:35.914Z,20.9
2016-08-07T02:43:35.893Z,20.91
2016-08-07T02:44:35.886Z,20.93
2016-08-07T02:45:35.165Z,20.88
2016-08-07T02:46:37.321Z,20.85
2016-08-07T02:47:35.840Z,20.75
2016-08-07T02:48:35.978Z,20.78
2016-08-07T02:49:35.817Z,20.85
2016-08-07T02:50:35.790Z,20.87
2016-08-07T02:51:35.313Z,20.91
2016-08-07T02:52:35.759Z,20.81
2016-08-07T02:53:35.740Z,20.76
2016-08-07T02:54:35.720Z,20.72
2016-08-07T02:55:35.713Z,20.76
2016-08-07T02:56:35.744Z,20.78
2016-08-07T02:57:35.682Z,20.72
2016-08-07T02:58:35.673Z,20.73
2016-08-07T02:59:35.647Z,20.76
2016-08-07T03:00:35.622Z,20.79
2016-08-07T03:01:35.609Z,20.73
2016-08-07T03:02:35.593Z,20.75
2016-08-07T03:03:37.713Z,20.72
2016-08-07T03:04:35.561Z,20.72
2016-08-07T03:05:35.558Z,20.79
2016-08-07T03:06:34.351Z,20.72
2016-08-07T03:07:35.511Z,20.66
2016-08-07T03:08:35.502Z,20.64
2016-08-07T03:09:35.491Z,20.66
2016-08-07T03:10:35.459Z,20.64
2016-08-07T03:11:35.449Z,20.63
2016-08-07T03:12:34.724Z,20.72
2016-08-07T03:13:35.416Z,20.63
2016-08-07T03:14:35.406Z,20.66
2016-08-07T03:15:35.382Z,20.66
2016-08-07T03:16:35.365Z,20.61
2016-08-07T03:17:35.357Z,20.64
2016-08-07T03:18:35.334Z,20.63
2016-08-07T03:19:35.317Z,20.61
2016-08-07T03:20:35.300Z,20.66
2016-08-07T03:21:35.609Z,20.6
2016-08-07T03:22:35.266Z,20.68
2016-08-07T03:23:35.249Z,20.64
2016-08-07T03:24:34.521Z,20.57
2016-08-07T03:25:35.220Z,20.63
2016-08-07T03:26:35.201Z,20.51
2016-08-07T03:27:35.185Z,20.61
2016-08-07T03:28:35.166Z,20.57
2016-08-07T03:29:35.158Z,20.46
2016-08-07T03:30:35.135Z,20.58
2016-08-07T03:31:35.111Z,20.51
2016-08-07T03:32:35.137Z,20.6
2016-08-07T03:33:35.092Z,20.53
2016-08-07T03:34:35.067Z,20.5
2016-08-07T03:35:35.057Z,20.5
2016-08-07T03:37:35.024Z,20.6
2016-08-07T03:38:35.000Z,20.51
2016-08-07T03:39:34.987Z,20.46
2016-08-07T03:40:34.275Z,20.53
2016-08-07T03:41:34.970Z,20.53
2016-08-07T03:42:34.942Z,20.46
2016-08-07T03:43:34.928Z,20.51
2016-08-07T03:44:34.897Z,20.51
2016-08-07T03:45:34.897Z,20.54
2016-08-07T03:46:34.880Z,20.54
2016-08-07T03:47:34.859Z,20.6
2016-08-07T03:48:34.838Z,20.6
2016-08-07T03:49:34.825Z,20.53
2016-08-07T03:50:34.110Z,20.61
2016-08-07T03:52:34.792Z,20.58
2016-08-07T03:53:34.757Z,20.51
2016-08-07T03:54:34.808Z,20.57
2016-08-07T03:55:37.024Z,20.64
2016-08-07T03:56:34.701Z,20.6
2016-08-07T03:57:34.685Z,20.51
2016-08-07T03:58:34.680Z,20.44
2016-08-07T03:59:34.740Z,20.56
2016-08-07T04:00:34.642Z,20.63
2016-08-07T04:01:33.912Z,20.58
2016-08-07T04:02:34.604Z,20.5
2016-08-07T04:03:34.595Z,20.48
2016-08-07T04:04:34.581Z,20.48
2016-08-07T04:05:34.567Z,20.46
2016-08-07T04:07:34.535Z,20.46
2016-08-07T04:08:34.500Z,20.5
2016-08-07T04:09:34.490Z,20.44
2016-08-07T04:10:34.480Z,20.44
2016-08-07T04:11:34.456Z,20.53
2016-08-07T04:12:34.440Z,20.5
2016-08-07T04:13:34.421Z,20.46
2016-08-07T04:14:34.432Z,20.48
2016-08-07T04:15:34.409Z,20.46
2016-08-07T04:16:34.403Z,20.48
2016-08-07T04:17:34.356Z,20.51
2016-08-07T04:18:34.344Z,20.48
2016-08-07T04:19:34.335Z,20.51
2016-08-07T04:20:34.305Z,20.46
2016-08-07T04:21:34.296Z,20.46
2016-08-07T04:22:34.276Z,20.35
2016-08-07T04:23:33.551Z,20.33
2016-08-07T04:24:34.241Z,20.41
2016-08-07T04:25:34.222Z,20.4
2016-08-07T04:26:34.210Z,20.35
2016-08-07T04:27:34.188Z,20.44
2016-08-07T04:28:34.177Z,20.48
2016-08-07T04:29:34.156Z,20.41
2016-08-07T04:30:34.146Z,20.33
2016-08-07T04:31:34.121Z,20.38
2016-08-07T04:32:34.116Z,20.38
2016-08-07T04:33:34.094Z,20.35
2016-08-07T04:34:34.073Z,20.31
2016-08-07T04:35:34.064Z,20.38
2016-08-07T04:36:34.044Z,20.35
2016-08-07T04:37:34.020Z,20.44
2016-08-07T04:38:34.005Z,20.44
2016-08-07T04:39:34.966Z,20.37
2016-08-07T04:40:33.987Z,20.48
2016-08-07T04:41:33.256Z,20.42
2016-08-07T04:42:33.940Z,20.35
2016-08-07T04:43:33.931Z,20.41
2016-08-07T04:44:33.912Z,20.42
2016-08-07T04:45:33.899Z,20.44
2016-08-07T04:46:33.887Z,20.41
2016-08-07T04:47:33.861Z,20.48
2016-08-07T04:48:34.833Z,20.44
2016-08-07T04:49:33.825Z,20.48
2016-08-07T04:50:33.816Z,20.46
2016-08-07T04:51:33.094Z,20.41
2016-08-07T04:52:33.076Z,20.38
2016-08-07T04:53:33.765Z,20.44
2016-08-07T04:54:33.754Z,20.44
2016-08-07T04:55:32.326Z,20.44
2016-08-07T04:56:33.709Z,20.46
2016-08-07T04:57:33.723Z,20.5
2016-08-07T04:58:33.676Z,20.46
2016-08-07T04:59:32.954Z,20.4
2016-08-07T05:00:32.963Z,20.4
2016-08-07T05:01:33.647Z,20.41
2016-08-07T05:02:33.611Z,20.44
2016-08-07T05:03:33.596Z,20.42
2016-08-07T05:04:33.583Z,20.35
2016-08-07T05:05:33.559Z,20.44
2016-08-07T05:06:33.553Z,20.42
2016-08-07T05:07:33.536Z,20.33
2016-08-07T05:08:33.508Z,20.31
2016-08-07T05:09:33.503Z,20.42
2016-08-07T05:10:33.477Z,20.46
2016-08-07T05:11:33.472Z,20.48
2016-08-07T05:12:33.445Z,20.44
2016-08-07T05:13:33.424Z,20.46
2016-08-07T05:14:33.429Z,20.4
2016-08-07T05:15:33.395Z,20.34
2016-08-07T05:16:33.375Z,20.37
2016-08-07T05:17:33.361Z,20.27
2016-08-07T05:18:33.340Z,20.34
2016-08-07T05:19:33.327Z,20.35
2016-08-07T05:20:33.316Z,20.37
2016-08-07T05:21:33.294Z,20.33
2016-08-07T05:22:33.279Z,20.38
2016-08-07T05:23:32.560Z,20.35
2016-08-07T05:24:33.247Z,20.33
2016-08-07T05:25:33.238Z,20.34
2016-08-07T05:26:33.218Z,20.44
2016-08-07T05:27:33.197Z,20.44
2016-08-07T05:28:33.176Z,20.46
2016-08-07T05:29:33.162Z,20.37
2016-08-07T05:30:33.142Z,20.4
2016-08-07T05:31:33.132Z,20.37
2016-08-07T05:32:33.105Z,20.46
2016-08-07T05:33:33.086Z,20.54
2016-08-07T05:34:33.082Z,20.46
2016-08-07T05:35:33.066Z,20.51
2016-08-07T05:36:33.058Z,20.5
2016-08-07T05:37:33.029Z,20.42
2016-08-07T05:38:33.014Z,20.4
2016-08-07T05:39:32.998Z,20.42
2016-08-07T05:40:32.269Z,20.37
2016-08-07T05:41:32.970Z,20.3
2016-08-07T05:42:32.939Z,20.41
2016-08-07T05:43:32.961Z,20.5
2016-08-07T05:44:32.921Z,20.56
2016-08-07T05:45:32.892Z,20.5
2016-08-07T05:46:32.874Z,20.5
2016-08-07T05:47:32.870Z,20.5
2016-08-07T05:48:32.840Z,20.5
2016-08-07T05:49:32.831Z,20.51
2016-08-07T05:50:32.811Z,20.46
2016-08-07T05:51:32.922Z,20.5
2016-08-07T05:52:32.784Z,20.54
2016-08-07T05:53:32.830Z,20.53
2016-08-07T05:54:32.742Z,20.46
2016-08-07T05:55:32.750Z,20.53
2016-08-07T05:56:32.790Z,20.53
2016-08-07T05:57:32.699Z,20.57
2016-08-07T05:58:32.676Z,20.51
2016-08-07T05:59:31.950Z,20.54
2016-08-07T06:00:32.637Z,20.51
2016-08-07T06:01:32.633Z,20.48
2016-08-07T06:02:32.658Z,20.48
2016-08-07T06:03:32.592Z,20.44
2016-08-07T06:04:32.572Z,20.51
2016-08-07T06:05:32.553Z,20.53
2016-08-07T06:06:32.547Z,20.57
2016-08-07T06:07:32.528Z,20.61
2016-08-07T06:08:32.502Z,20.57
2016-08-07T06:09:32.512Z,20.6
2016-08-07T06:10:31.769Z,20.61
2016-08-07T06:11:31.764Z,20.64
2016-08-07T06:12:33.428Z,20.64
2016-08-07T06:13:32.430Z,20.57
2016-08-07T06:14:32.414Z,20.61
2016-08-07T06:15:32.390Z,20.61
2016-08-07T06:16:31.673Z,20.68
2016-08-07T06:17:32.353Z,20.68
2016-08-07T06:18:32.355Z,20.72
2016-08-07T06:19:32.324Z,20.73
2016-08-07T06:20:32.395Z,20.78
2016-08-07T06:21:31.591Z,20.75
2016-08-07T06:22:31.822Z,20.72
2016-08-07T06:23:32.268Z,20.81
2016-08-07T06:24:32.247Z,20.76
2016-08-07T06:25:32.225Z,20.79
2016-08-07T06:26:32.226Z,20.72
2016-08-07T06:27:32.185Z,20.76
2016-08-07T06:28:31.479Z,20.75
2016-08-07T06:29:32.162Z,20.75
2016-08-07T06:30:32.157Z,20.75
2016-08-07T06:31:32.147Z,20.79
2016-08-07T06:32:32.111Z,20.68
2016-08-07T06:33:32.097Z,20.78
2016-08-07T06:34:32.074Z,20.75
2016-08-07T06:35:32.391Z,20.72
2016-08-07T06:36:31.342Z,20.73
2016-08-07T06:37:31.201Z,20.71
2016-08-07T06:38:32.008Z,20.76
2016-08-07T06:39:31.988Z,20.83
2016-08-07T06:40:31.977Z,20.87
2016-08-07T06:41:31.964Z,20.87
2016-08-07T06:42:31.944Z,20.87
2016-08-07T06:43:31.932Z,20.81
2016-08-07T06:44:31.910Z,20.87
2016-08-07T06:45:31.904Z,20.78
2016-08-07T06:46:31.880Z,20.87
2016-08-07T06:47:31.150Z,20.93
2016-08-07T06:48:31.135Z,20.83
2016-08-07T06:49:31.147Z,20.97
2016-08-07T06:50:31.809Z,20.9
2016-08-07T06:51:31.793Z,20.94
2016-08-07T06:53:31.763Z,20.96
2016-08-07T06:54:31.760Z,20.97
2016-08-07T06:55:31.026Z,20.91
2016-08-07T06:56:31.719Z,20.97
2016-08-07T06:57:31.705Z,21
2016-08-07T06:58:31.681Z,20.9
2016-08-07T06:59:30.956Z,20.93
2016-08-07T07:00:31.714Z,20.9
2016-08-07T07:01:31.624Z,20.97
2016-08-07T07:02:31.618Z,20.96
2016-08-07T07:03:31.588Z,20.85
2016-08-07T07:04:31.585Z,20.94
2016-08-07T07:05:31.564Z,21.01
2016-08-07T07:06:31.566Z,20.97
2016-08-07T07:08:31.530Z,21.01
2016-08-07T07:09:31.509Z,21
2016-08-07T07:10:31.480Z,21
2016-08-07T07:11:30.756Z,21.01
2016-08-07T07:12:31.459Z,21
2016-08-07T07:13:31.616Z,21
2016-08-07T07:14:31.430Z,21.01
2016-08-07T07:15:31.399Z,21.06
2016-08-07T07:16:30.671Z,20.98
2016-08-07T07:17:31.384Z,20.98
2016-08-07T07:18:31.340Z,21
2016-08-07T07:19:31.329Z,20.98
2016-08-07T07:20:31.312Z,21.03
2016-08-07T07:21:31.299Z,20.98
2016-08-07T07:23:31.258Z,20.96
2016-08-07T07:24:31.250Z,21.01
2016-08-07T07:25:31.242Z,21.01
2016-08-07T07:26:31.215Z,20.97
2016-08-07T07:27:31.201Z,21.06
2016-08-07T07:28:31.180Z,20.98
2016-08-07T07:29:31.371Z,20.96
2016-08-07T07:30:31.203Z,21.01
2016-08-07T07:31:31.130Z,21.01
2016-08-07T07:32:31.116Z,21.09
2016-08-07T07:33:31.101Z,21.05
2016-08-07T07:34:31.098Z,21.06
2016-08-07T07:35:31.083Z,21.13
2016-08-07T07:36:31.049Z,21.12
2016-08-07T07:38:31.029Z,21.12
2016-08-07T07:39:30.290Z,21.13
2016-08-07T07:40:30.982Z,21.09
2016-08-07T07:41:30.974Z,21.21
2016-08-07T07:42:30.951Z,21.22
2016-08-07T07:43:30.936Z,21.28
2016-08-07T07:44:30.917Z,21.26
2016-08-07T07:45:30.896Z,21.24
2016-08-07T07:46:30.188Z,21.27
2016-08-07T07:47:30.880Z,21.24
2016-08-07T08:02:25.665Z,21.31
2016-08-07T08:03:25.650Z,21.4
2016-08-07T08:04:25.627Z,21.4
2016-08-07T08:05:24.909Z,21.33
2016-08-07T08:06:25.607Z,21.36
2016-08-07T08:07:25.592Z,21.27
2016-08-07T08:08:25.566Z,21.22
2016-08-07T08:09:25.558Z,21.26
2016-08-07T08:10:25.534Z,21.37
2016-08-07T08:11:25.522Z,21.42
2016-08-07T08:12:24.794Z,21.4
2016-08-07T08:13:24.776Z,21.45
2016-08-07T08:14:25.473Z,21.45
2016-08-07T08:15:25.451Z,21.42
2016-08-07T08:16:25.439Z,21.45
2016-08-07T08:17:25.409Z,21.43
2016-08-07T08:18:25.400Z,21.38
2016-08-07T08:19:25.387Z,21.37
2016-08-07T08:20:25.374Z,21.4
2016-08-07T08:21:25.357Z,21.45
2016-08-07T08:22:25.337Z,21.38
2016-08-07T08:23:25.322Z,21.37
2016-08-07T08:24:25.310Z,21.4
2016-08-07T08:25:25.316Z,21.38
2016-08-07T08:26:25.279Z,21.49
2016-08-07T08:27:24.554Z,21.48
2016-08-07T08:28:24.530Z,21.53
2016-08-07T08:29:25.232Z,21.55
2016-08-07T08:30:25.211Z,21.55
2016-08-07T08:31:24.488Z,21.52
2016-08-07T08:32:25.175Z,21.51
2016-08-07T08:33:25.160Z,21.45
2016-08-07T08:34:25.143Z,21.34
2016-08-07T08:35:25.124Z,21.51
2016-08-07T08:36:25.119Z,21.52
2016-08-07T08:37:24.389Z,21.49
2016-08-07T08:38:25.098Z,21.51
2016-08-07T08:39:25.071Z,21.53
2016-08-07T08:40:25.040Z,21.45
2016-08-07T08:41:25.029Z,21.49
2016-08-07T08:42:25.023Z,21.53
2016-08-07T08:43:24.283Z,21.49
2016-08-07T08:44:24.982Z,21.61
2016-08-07T08:45:24.971Z,21.53
2016-08-07T08:46:24.960Z,21.56
2016-08-07T08:47:24.217Z,21.52
2016-08-07T08:48:24.918Z,21.56
2016-08-07T08:49:24.903Z,21.56
2016-08-07T08:50:24.875Z,21.53
2016-08-07T08:51:24.869Z,21.56
2016-08-07T08:52:24.858Z,21.63
2016-08-07T08:53:24.838Z,21.68
2016-08-07T08:54:24.814Z,21.59
2016-08-07T08:55:24.117Z,21.61
2016-08-07T08:56:24.081Z,21.63
2016-08-07T08:57:24.770Z,21.53
2016-08-07T08:58:24.769Z,21.51
2016-08-07T08:59:24.735Z,21.55
2016-08-07T09:00:24.015Z,21.58
2016-08-07T09:01:23.997Z,21.52
2016-08-07T09:02:24.691Z,21.52
2016-08-07T09:03:24.674Z,21.53
2016-08-07T09:04:24.668Z,21.58
2016-08-07T09:05:24.645Z,21.66
2016-08-07T09:06:24.626Z,21.63
2016-08-07T09:07:24.604Z,21.56
2016-08-07T09:08:24.595Z,21.66
2016-08-07T09:09:24.576Z,21.67
2016-08-07T09:10:24.561Z,21.58
2016-08-07T09:11:24.558Z,21.58
2016-08-07T09:12:24.538Z,21.63
2016-08-07T09:13:23.795Z,21.64
2016-08-07T09:14:24.496Z,21.59
2016-08-07T09:15:24.486Z,21.55
2016-08-07T09:16:24.463Z,21.55
2016-08-07T09:17:24.445Z,21.66
2016-08-07T09:18:24.428Z,21.64
2016-08-07T09:19:24.422Z,21.64
2016-08-07T09:20:24.396Z,21.64
2016-08-07T09:21:24.393Z,21.58
2016-08-07T09:22:24.363Z,21.63
2016-08-07T09:23:23.164Z,21.63
2016-08-07T09:24:24.334Z,21.63
2016-08-07T09:25:24.312Z,21.63
2016-08-07T09:26:24.295Z,21.71
2016-08-07T09:27:23.572Z,21.68
2016-08-07T09:28:24.271Z,21.74
2016-08-07T09:29:24.326Z,21.68
2016-08-07T09:30:24.235Z,21.67
2016-08-07T09:31:24.228Z,21.7
2016-08-07T09:32:24.199Z,21.75
2016-08-07T09:33:24.185Z,21.71
2016-08-07T09:34:24.168Z,21.77
2016-08-07T09:35:24.150Z,21.85
2016-08-07T09:36:24.148Z,21.77
2016-08-07T09:37:24.118Z,21.77
2016-08-07T09:38:24.100Z,21.81
2016-08-07T09:39:23.372Z,21.73
2016-08-07T09:40:24.087Z,21.77
2016-08-07T09:41:24.054Z,21.79
2016-08-07T09:42:24.067Z,21.82
2016-08-07T09:43:23.317Z,21.79
2016-08-07T09:44:24.004Z,21.83
2016-08-07T09:45:23.988Z,21.86
2016-08-07T09:46:23.264Z,21.83
2016-08-07T09:47:23.964Z,21.71
2016-08-07T09:48:23.242Z,21.86
2016-08-07T09:49:23.924Z,21.85
2016-08-07T09:50:23.914Z,21.85
2016-08-07T09:51:23.891Z,21.79
2016-08-07T09:52:23.167Z,21.79
2016-08-07T09:54:23.850Z,21.75
2016-08-07T09:55:23.826Z,21.79
2016-08-07T09:56:23.810Z,21.79
2016-08-07T09:57:23.088Z,21.86
2016-08-07T09:58:23.781Z,21.85
2016-08-07T09:59:23.061Z,21.89
2016-08-07T10:00:23.750Z,21.86
2016-08-07T10:01:23.036Z,21.83
2016-08-07T10:02:23.713Z,21.83
2016-08-07T10:03:23.703Z,21.89
2016-08-07T10:04:23.682Z,21.86
2016-08-07T10:05:22.958Z,21.89
2016-08-07T10:06:22.951Z,21.81
2016-08-07T10:07:23.631Z,21.81
2016-08-07T10:09:23.606Z,21.93
2016-08-07T10:10:22.876Z,21.83
2016-08-07T10:11:23.571Z,21.9
2016-08-07T10:12:23.557Z,21.93
2016-08-07T10:13:22.831Z,21.89
2016-08-07T10:14:23.526Z,21.93
2016-08-07T10:15:23.507Z,21.94
2016-08-07T10:16:23.493Z,21.96
2016-08-07T10:17:22.770Z,21.89
2016-08-07T10:18:23.468Z,21.91
2016-08-07T10:19:23.467Z,21.96
2016-08-07T10:20:22.722Z,22.05
2016-08-07T10:21:22.695Z,22.06
2016-08-07T10:22:23.401Z,22.08
2016-08-07T10:24:22.665Z,22.08
2016-08-07T10:25:23.346Z,22.11
2016-08-07T10:26:21.912Z,22.14
2016-08-07T10:27:22.607Z,22.09
2016-08-07T10:28:22.605Z,22.11
2016-08-07T10:29:22.581Z,22.17
2016-08-07T10:30:23.268Z,22.09
2016-08-07T10:31:23.257Z,22.06
2016-08-07T10:32:22.559Z,22.06
2016-08-07T10:33:23.277Z,22.06
2016-08-07T10:34:23.200Z,22.11
2016-08-07T10:35:23.189Z,22.08
2016-08-07T10:36:23.162Z,22.15
2016-08-07T10:37:23.154Z,22.14
2016-08-07T10:38:23.134Z,22.2
2016-08-07T10:39:23.141Z,22.21
2016-08-07T10:40:23.104Z,22.21
2016-08-07T10:41:23.081Z,22.15
2016-08-07T10:42:23.078Z,22.12
2016-08-07T10:43:23.059Z,22.26
2016-08-07T10:44:23.045Z,22.2
2016-08-07T10:45:23.042Z,22.26
2016-08-07T10:46:23.017Z,22.24
2016-08-07T10:47:22.984Z,22.15
2016-08-07T10:48:22.992Z,22.3
2016-08-07T10:49:22.952Z,22.24
2016-08-07T10:50:22.954Z,22.21
2016-08-07T10:51:22.217Z,22.33
2016-08-07T10:52:22.902Z,22.39
2016-08-07T10:53:22.896Z,22.31
2016-08-07T10:54:22.881Z,22.26
2016-08-07T10:55:22.858Z,22.31
2016-08-07T10:56:22.141Z,22.27
2016-08-07T10:57:22.834Z,22.29
2016-08-07T10:58:22.818Z,22.41
2016-08-07T10:59:22.805Z,22.33
2016-08-07T11:00:22.786Z,22.33
2016-08-07T11:01:22.778Z,22.45
2016-08-07T11:02:22.751Z,22.35
2016-08-07T11:03:22.794Z,22.49
2016-08-07T11:04:22.711Z,22.51
2016-08-07T11:05:22.698Z,22.54
2016-08-07T11:06:22.682Z,22.42
2016-08-07T11:07:22.674Z,22.48
2016-08-07T11:08:22.662Z,22.45
2016-08-07T11:09:22.638Z,22.49
2016-08-07T11:10:22.611Z,22.48
2016-08-07T11:11:22.607Z,22.46
2016-08-07T11:12:22.591Z,22.49
2016-08-07T11:13:22.574Z,22.52
2016-08-07T11:14:21.847Z,22.45
2016-08-07T11:15:21.830Z,22.46
2016-08-07T11:16:22.529Z,22.57
2016-08-07T11:17:22.508Z,22.59
2016-08-07T11:18:22.491Z,22.56
2016-08-07T11:19:22.485Z,22.46
2016-08-07T11:20:22.461Z,22.56
2016-08-07T11:21:22.453Z,22.48
2016-08-07T11:22:21.723Z,22.45
2016-08-07T11:23:22.424Z,22.6
2016-08-07T11:24:21.687Z,22.59
2016-08-07T11:25:22.383Z,22.6
2016-08-07T11:26:22.370Z,22.48
2016-08-07T11:27:22.371Z,22.54
2016-08-07T11:28:22.328Z,22.61
2016-08-07T11:29:22.326Z,22.64
2016-08-07T11:30:21.596Z,22.57
2016-08-07T11:31:22.288Z,22.57
2016-08-07T11:32:22.284Z,22.64
2016-08-07T11:33:22.258Z,22.63
2016-08-07T11:34:22.243Z,22.6
2016-08-07T11:35:22.231Z,22.66
2016-08-07T11:36:22.209Z,22.67
2016-08-07T11:37:22.196Z,22.56
2016-08-07T11:38:22.180Z,22.54
2016-08-07T11:39:22.166Z,22.59
2016-08-07T11:40:22.144Z,22.66
2016-08-07T11:41:22.133Z,22.56
2016-08-07T11:42:22.119Z,22.64
2016-08-07T11:43:21.386Z,22.59
2016-08-07T11:44:22.085Z,22.6
2016-08-07T11:45:20.648Z,22.56
2016-08-07T11:46:21.344Z,22.54
2016-08-07T11:47:21.325Z,22.61
2016-08-07T11:48:20.615Z,22.63
2016-08-07T11:49:22.003Z,22.64
2016-08-07T11:50:21.993Z,22.6
2016-08-07T11:51:21.980Z,22.57
2016-08-07T11:52:21.977Z,22.6
2016-08-07T11:53:21.950Z,22.57
2016-08-07T11:54:21.936Z,22.61
2016-08-07T11:55:21.207Z,22.61
2016-08-07T11:56:21.905Z,22.61
2016-08-07T11:57:21.884Z,22.64
2016-08-07T11:58:21.165Z,22.54
2016-08-07T11:59:21.850Z,22.63
2016-08-07T12:00:21.119Z,22.63
2016-08-07T12:01:21.826Z,22.63
2016-08-07T12:02:21.803Z,22.6
2016-08-07T12:03:21.084Z,22.56
2016-08-07T12:04:21.067Z,22.61
2016-08-07T12:05:21.766Z,22.57
2016-08-07T12:06:21.737Z,22.66
2016-08-07T12:07:21.734Z,22.59
2016-08-07T12:08:21.704Z,22.67
2016-08-07T12:09:21.688Z,22.69
2016-08-07T12:10:21.675Z,22.69
2016-08-07T12:11:20.978Z,22.64
2016-08-07T12:12:21.648Z,22.61
2016-08-07T12:13:20.209Z,22.67
2016-08-07T12:14:21.619Z,22.7
2016-08-07T12:15:20.886Z,22.67
2016-08-07T12:16:20.872Z,22.75
2016-08-07T12:17:21.567Z,22.7
2016-08-07T12:18:21.549Z,22.7
2016-08-07T12:19:21.530Z,22.67
2016-08-07T12:20:20.811Z,22.72
2016-08-07T12:21:21.509Z,22.7
2016-08-07T12:22:21.489Z,22.75
2016-08-07T12:23:21.472Z,22.75
2016-08-07T12:24:21.452Z,22.76
2016-08-07T12:25:21.448Z,22.67
2016-08-07T12:26:21.430Z,22.67
2016-08-07T12:27:20.694Z,22.67
2016-08-07T12:28:20.684Z,22.81
2016-08-07T12:29:21.386Z,22.72
2016-08-07T12:30:21.362Z,22.81
2016-08-07T12:31:20.647Z,22.81
2016-08-07T12:32:21.334Z,22.91
2016-08-07T12:33:21.312Z,22.78
2016-08-07T12:34:21.316Z,22.88
2016-08-07T12:35:20.585Z,22.81
2016-08-07T12:36:21.275Z,22.89
2016-08-07T12:37:20.545Z,22.86
2016-08-07T12:38:20.527Z,22.96
2016-08-07T12:39:21.227Z,22.94
2016-08-07T12:40:20.503Z,22.93
2016-08-07T12:41:21.197Z,22.93
2016-08-07T12:42:21.181Z,23.01
2016-08-07T12:43:21.170Z,22.99
2016-08-07T12:44:21.147Z,23.01
2016-08-07T12:45:21.130Z,23.01
2016-08-07T12:46:21.126Z,23.04
2016-08-07T12:47:21.106Z,22.94
2016-08-07T12:48:21.095Z,23.03
2016-08-07T12:49:21.091Z,23.07
2016-08-07T12:50:21.068Z,23.07
2016-08-07T12:51:21.041Z,23.11
2016-08-07T12:52:20.322Z,23.12
2016-08-07T12:53:20.310Z,23.03
2016-08-07T12:55:20.988Z,23.06
2016-08-07T12:56:20.268Z,23.07
2016-08-07T12:57:20.955Z,23.09
2016-08-07T12:58:20.951Z,23.07
2016-08-07T12:59:20.219Z,23.15
2016-08-07T13:00:20.922Z,23.09
2016-08-07T13:01:20.901Z,23.04
2016-08-07T13:02:20.169Z,23.06
2016-08-07T13:03:20.868Z,22.97
2016-08-07T13:04:19.425Z,23.03
2016-08-07T13:05:20.831Z,23.11
2016-08-07T13:06:20.817Z,23.04
2016-08-07T13:07:20.816Z,23.09
2016-08-07T13:08:20.084Z,23.03
2016-08-07T13:10:20.085Z,23.03
2016-08-07T13:11:20.762Z,23.03
2016-08-07T13:12:20.026Z,23.15
2016-08-07T13:13:20.722Z,23.14
2016-08-07T13:14:19.999Z,23.06
2016-08-07T13:15:20.684Z,23.15
2016-08-07T13:16:20.693Z,23.16
2016-08-07T13:17:20.660Z,23.09
2016-08-07T13:18:20.655Z,23.12
2016-08-07T13:19:20.638Z,23.15
2016-08-07T13:20:20.616Z,23.07
2016-08-07T13:21:20.602Z,22.99